aviador You're here:

KSYR Decoded Metar

SYRACUSE in NY, USA
Report Time2018-04-22 13:54:00
UTC Time2018-04-22 14:29:40
Flight Rules vfr VFR
Wind270° at 06 kt
W.Decomp.*RWY 28: 6.0 kt HW 0.3 kt RCW
RWY 33: 4.1 kt HW 4.4 kt LCW
W.Rank270° ranks 4
Current wind is below 270° avg. (9.6)
Visibility9999 m
Phenomena:N/A
Clouds:N/A
Expected CloudBase > 4,800 ft AGL from Temp-Dew spread
CeilingNone
Temp09°C (ISA -5)
Dew Point-3°C (43% RH)
AAT4.5°C
QNH1031 hPa
Density Alt-738 ft
Elevation417 ft
Report Wrong Elevation
Raw Report
KSYR 221354Z 27006KT 10SM CLR 09/M03 A3044 RMK AO2 SLP309
T00891033 $=

Extra information for KSYR:More info

Metar Taf Metar & Taf Last 4 Metars F.Rules Stats Wind Profile Meteogram Temp Stats Airport Information Weather charts Add Link Nearby VenuesMetar ALERT Operation Metar Decoded Social comments

AIRNAV info for KSYR